sensor_id;sensor_type;location;lat;lon;timestamp;temperature;humidity
69204;DHT22;56317;27.658;85.326;2023-03-23T00:01:19;9.10;99.90
69204;DHT22;56317;27.658;85.326;2023-03-23T00:03:49;9.10;99.90
69204;DHT22;56317;27.658;85.326;2023-03-23T00:06:17;9.00;99.90
69204;DHT22;56317;27.658;85.326;2023-03-23T00:08:46;9.00;99.90
69204;DHT22;56317;27.658;85.326;2023-03-23T00:11:17;9.00;99.90
69204;DHT22;56317;27.658;85.326;2023-03-23T00:13:48;9.00;99.90
69204;DHT22;56317;27.658;85.326;2023-03-23T00:16:20;9.00;99.90
69204;DHT22;56317;27.658;85.326;2023-03-23T00:18:57;9.00;99.90
69204;DHT22;56317;27.658;85.326;2023-03-23T00:21:26;9.10;99.90
69204;DHT22;56317;27.658;85.326;2023-03-23T00:24:06;9.10;99.90
69204;DHT22;56317;27.658;85.326;2023-03-23T00:26:34;9.10;99.90
69204;DHT22;56317;27.658;85.326;2023-03-23T00:29:05;9.10;99.90
69204;DHT22;56317;27.658;85.326;2023-03-23T00:31:33;9.10;99.90
69204;DHT22;56317;27.658;85.326;2023-03-23T00:34:03;9.20;99.90
69204;DHT22;56317;27.658;85.326;2023-03-23T00:36:31;9.20;99.90
69204;DHT22;56317;27.658;85.326;2023-03-23T00:39:03;9.20;99.90
69204;DHT22;56317;27.658;85.326;2023-03-23T00:41:30;9.20;99.90
69204;DHT22;56317;27.658;85.326;2023-03-23T00:43:59;9.30;99.90
69204;DHT22;56317;27.658;85.326;2023-03-23T00:46:29;9.30;99.90
69204;DHT22;56317;27.658;85.326;2023-03-23T00:48:57;9.30;99.90
69204;DHT22;56317;27.658;85.326;2023-03-23T00:51:25;9.30;99.90
69204;DHT22;56317;27.658;85.326;2023-03-23T00:53:52;9.40;99.90
69204;DHT22;56317;27.658;85.326;2023-03-23T00:56:19;9.50;99.90
69204;DHT22;56317;27.658;85.326;2023-03-23T00:58:46;9.50;99.90
69204;DHT22;56317;27.658;85.326;2023-03-23T01:01:14;9.70;99.90
69204;DHT22;56317;27.658;85.326;2023-03-23T01:03:41;9.70;99.90
69204;DHT22;56317;27.658;85.326;2023-03-23T01:06:10;9.90;99.90
69204;DHT22;56317;27.658;85.326;2023-03-23T01:08:41;10.00;99.90
69204;DHT22;56317;27.658;85.326;2023-03-23T01:11:15;10.20;99.90
69204;DHT22;56317;27.658;85.326;2023-03-23T01:13:43;10.30;99.90
69204;DHT22;56317;27.658;85.326;2023-03-23T01:16:11;10.40;99.90
69204;DHT22;56317;27.658;85.326;2023-03-23T01:18:41;10.50;99.90
69204;DHT22;56317;27.658;85.326;2023-03-23T01:21:11;10.70;99.90
69204;DHT22;56317;27.658;85.326;2023-03-23T01:23:39;10.80;99.90
69204;DHT22;56317;27.658;85.326;2023-03-23T01:26:11;11.00;99.90
69204;DHT22;56317;27.658;85.326;2023-03-23T01:28:39;11.10;99.90
69204;DHT22;56317;27.658;85.326;2023-03-23T01:31:10;11.30;99.90
69204;DHT22;56317;27.658;85.326;2023-03-23T01:33:39;11.40;99.90
69204;DHT22;56317;27.658;85.326;2023-03-23T01:36:10;11.60;99.90
69204;DHT22;56317;27.658;85.326;2023-03-23T01:38:48;11.80;99.90
69204;DHT22;56317;27.658;85.326;2023-03-23T01:41:17;11.90;99.90
69204;DHT22;56317;27.658;85.326;2023-03-23T01:44:08;12.10;99.90
69204;DHT22;56317;27.658;85.326;2023-03-23T01:46:54;12.30;99.90
69204;DHT22;56317;27.658;85.326;2023-03-23T01:49:27;12.50;99.90
69204;DHT22;56317;27.658;85.326;2023-03-23T01:52:07;12.70;99.90
69204;DHT22;56317;27.658;85.326;2023-03-23T01:54:37;12.90;99.90
69204;DHT22;56317;27.658;85.326;2023-03-23T01:57:07;13.10;99.90
69204;DHT22;56317;27.658;85.326;2023-03-23T01:59:37;13.30;99.90
69204;DHT22;56317;27.658;85.326;2023-03-23T02:02:04;13.50;99.90
69204;DHT22;56317;27.658;85.326;2023-03-23T02:04:32;13.60;99.90
69204;DHT22;56317;27.658;85.326;2023-03-23T02:07:00;13.70;99.90
69204;DHT22;56317;27.658;85.326;2023-03-23T02:09:28;13.90;99.90
69204;DHT22;56317;27.658;85.326;2023-03-23T02:11:55;14.10;99.90
69204;DHT22;56317;27.658;85.326;2023-03-23T02:14:25;14.20;99.90
69204;DHT22;56317;27.658;85.326;2023-03-23T02:17:03;14.40;99.90
69204;DHT22;56317;27.658;85.326;2023-03-23T02:41:32;15.70;99.90
69204;DHT22;56317;27.658;85.326;2023-03-23T02:44:02;15.90;99.90
69204;DHT22;56317;27.658;85.326;2023-03-23T02:46:30;16.00;99.90
69204;DHT22;56317;27.658;85.326;2023-03-23T02:48:59;16.20;99.90
69204;DHT22;56317;27.658;85.326;2023-03-23T02:51:30;16.40;99.90
69204;DHT22;56317;27.658;85.326;2023-03-23T02:53:59;16.60;99.90
69204;DHT22;56317;27.658;85.326;2023-03-23T02:56:28;16.70;99.90
69204;DHT22;56317;27.658;85.326;2023-03-23T02:58:56;16.80;99.90
69204;DHT22;56317;27.658;85.326;2023-03-23T03:03:57;17.20;99.90
69204;DHT22;56317;27.658;85.326;2023-03-23T03:06:26;17.30;99.90
69204;DHT22;56317;27.658;85.326;2023-03-23T03:09:04;17.40;99.90
69204;DHT22;56317;27.658;85.326;2023-03-23T03:11:34;17.60;99.90
69204;DHT22;56317;27.658;85.326;2023-03-23T03:14:06;17.90;99.90
69204;DHT22;56317;27.658;85.326;2023-03-23T03:19:35;18.20;99.90
69204;DHT22;56317;27.658;85.326;2023-03-23T03:22:05;18.50;99.90
69204;DHT22;56317;27.658;85.326;2023-03-23T03:24:34;18.60;99.90
69204;DHT22;56317;27.658;85.326;2023-03-23T03:27:05;18.60;99.90
69204;DHT22;56317;27.658;85.326;2023-03-23T03:29:39;18.70;99.90
69204;DHT22;56317;27.658;85.326;2023-03-23T03:32:11;18.80;99.90
69204;DHT22;56317;27.658;85.326;2023-03-23T03:34:42;19.00;99.90
69204;DHT22;56317;27.658;85.326;2023-03-23T03:37:10;19.00;99.90
69204;DHT22;56317;27.658;85.326;2023-03-23T03:39:39;19.10;99.90
69204;DHT22;56317;27.658;85.326;2023-03-23T03:42:06;19.10;99.90
69204;DHT22;56317;27.658;85.326;2023-03-23T03:44:34;19.30;99.90
69204;DHT22;56317;27.658;85.326;2023-03-23T03:47:02;19.50;99.90
69204;DHT22;56317;27.658;85.326;2023-03-23T03:49:30;19.70;99.90
69204;DHT22;56317;27.658;85.326;2023-03-23T03:51:57;20.00;99.90
69204;DHT22;56317;27.658;85.326;2023-03-23T03:54:27;20.30;99.90
69204;DHT22;56317;27.658;85.326;2023-03-23T03:56:55;20.60;99.90
69204;DHT22;56317;27.658;85.326;2023-03-23T03:59:24;20.90;99.90
69204;DHT22;56317;27.658;85.326;2023-03-23T04:01:53;21.10;99.90
69204;DHT22;56317;27.658;85.326;2023-03-23T04:04:21;21.30;99.50
69204;DHT22;56317;27.658;85.326;2023-03-23T04:06:54;21.40;99.90
69204;DHT22;56317;27.658;85.326;2023-03-23T04:09:22;21.60;98.50
69204;DHT22;56317;27.658;85.326;2023-03-23T04:11:49;21.60;98.60
69204;DHT22;56317;27.658;85.326;2023-03-23T04:14:16;21.90;99.00
69204;DHT22;56317;27.658;85.326;2023-03-23T04:16:43;22.10;96.60
69204;DHT22;56317;27.658;85.326;2023-03-23T04:19:10;22.00;94.60
69204;DHT22;56317;27.658;85.326;2023-03-23T04:21:41;21.90;93.70
69204;DHT22;56317;27.658;85.326;2023-03-23T04:24:09;21.80;93.80
69204;DHT22;56317;27.658;85.326;2023-03-23T04:26:36;21.80;93.90
69204;DHT22;56317;27.658;85.326;2023-03-23T04:29:03;22.00;94.60
69204;DHT22;56317;27.658;85.326;2023-03-23T04:31:32;22.30;93.10
69204;DHT22;56317;27.658;85.326;2023-03-23T04:34:12;22.40;92.00
69204;DHT22;56317;27.658;85.326;2023-03-23T04:36:42;22.50;91.60
69204;DHT22;56317;27.658;85.326;2023-03-23T04:39:10;22.70;91.70
69204;DHT22;56317;27.658;85.326;2023-03-23T04:41:37;23.00;90.50
69204;DHT22;56317;27.658;85.326;2023-03-23T04:44:08;23.10;89.10
69204;DHT22;56317;27.658;85.326;2023-03-23T04:46:35;23.40;90.40
69204;DHT22;56317;27.658;85.326;2023-03-23T04:49:03;23.70;87.30
69204;DHT22;56317;27.658;85.326;2023-03-23T04:51:30;24.10;88.30
69204;DHT22;56317;27.658;85.326;2023-03-23T04:53:57;24.40;84.20
69204;DHT22;56317;27.658;85.326;2023-03-23T04:56:24;24.50;80.70
69204;DHT22;56317;27.658;85.326;2023-03-23T04:58:52;24.70;79.50
69204;DHT22;56317;27.658;85.326;2023-03-23T05:01:19;25.00;81.80
69204;DHT22;56317;27.658;85.326;2023-03-23T05:03:46;25.30;76.80
69204;DHT22;56317;27.658;85.326;2023-03-23T05:06:14;25.40;74.40
69204;DHT22;56317;27.658;85.326;2023-03-23T05:08:41;25.50;75.30
69204;DHT22;56317;27.658;85.326;2023-03-23T05:11:08;25.90;79.30
69204;DHT22;56317;27.658;85.326;2023-03-23T05:13:36;26.40;73.10
69204;DHT22;56317;27.658;85.326;2023-03-23T05:16:06;26.70;72.10
69204;DHT22;56317;27.658;85.326;2023-03-23T05:18:34;27.10;68.20
69204;DHT22;56317;27.658;85.326;2023-03-23T05:21:02;27.00;67.60
69204;DHT22;56317;27.658;85.326;2023-03-23T05:23:33;26.90;67.10
69204;DHT22;56317;27.658;85.326;2023-03-23T05:26:00;27.00;65.70
69204;DHT22;56317;27.658;85.326;2023-03-23T05:28:27;27.20;64.60
69204;DHT22;56317;27.658;85.326;2023-03-23T05:30:57;27.50;64.60
69204;DHT22;56317;27.658;85.326;2023-03-23T05:33:24;27.90;58.70
69204;DHT22;56317;27.658;85.326;2023-03-23T05:35:52;28.90;57.40
69204;DHT22;56317;27.658;85.326;2023-03-23T05:38:19;30.80;56.30
69204;DHT22;56317;27.658;85.326;2023-03-23T05:40:46;32.20;53.20
69204;DHT22;56317;27.658;85.326;2023-03-23T05:43:15;33.50;51.90
69204;DHT22;56317;27.658;85.326;2023-03-23T05:45:42;34.30;49.80
69204;DHT22;56317;27.658;85.326;2023-03-23T05:48:10;34.60;46.70
69204;DHT22;56317;27.658;85.326;2023-03-23T05:50:37;35.40;45.00
69204;DHT22;56317;27.658;85.326;2023-03-23T05:53:05;36.20;45.20
69204;DHT22;56317;27.658;85.326;2023-03-23T05:55:32;35.80;45.20
69204;DHT22;56317;27.658;85.326;2023-03-23T05:57:59;36.40;45.10
69204;DHT22;56317;27.658;85.326;2023-03-23T06:00:27;37.70;44.30
69204;DHT22;56317;27.658;85.326;2023-03-23T06:02:57;38.90;42.10
69204;DHT22;56317;27.658;85.326;2023-03-23T06:05:24;39.00;41.80
69204;DHT22;56317;27.658;85.326;2023-03-23T06:07:55;38.90;41.80
69204;DHT22;56317;27.658;85.326;2023-03-23T06:10:22;38.70;41.80
69204;DHT22;56317;27.658;85.326;2023-03-23T06:12:50;39.20;41.10
69204;DHT22;56317;27.658;85.326;2023-03-23T06:15:19;39.70;40.30
69204;DHT22;56317;27.658;85.326;2023-03-23T06:17:47;39.50;39.00
69204;DHT22;56317;27.658;85.326;2023-03-23T06:20:16;38.90;40.20
69204;DHT22;56317;27.658;85.326;2023-03-23T06:22:43;38.90;40.90
69204;DHT22;56317;27.658;85.326;2023-03-23T06:25:11;39.80;40.90
69204;DHT22;56317;27.658;85.326;2023-03-23T06:27:42;41.30;39.60
69204;DHT22;56317;27.658;85.326;2023-03-23T06:30:12;41.30;37.60
69204;DHT22;56317;27.658;85.326;2023-03-23T06:32:42;40.30;38.40
69204;DHT22;56317;27.658;85.326;2023-03-23T06:35:12;39.80;37.40
69204;DHT22;56317;27.658;85.326;2023-03-23T06:37:40;40.00;39.10
69204;DHT22;56317;27.658;85.326;2023-03-23T06:40:07;39.50;39.30
69204;DHT22;56317;27.658;85.326;2023-03-23T06:42:37;37.70;38.90
69204;DHT22;56317;27.658;85.326;2023-03-23T06:45:04;35.00;40.60
69204;DHT22;56317;27.658;85.326;2023-03-23T06:47:32;33.30;42.50
69204;DHT22;56317;27.658;85.326;2023-03-23T06:49:59;33.80;43.90
69204;DHT22;56317;27.658;85.326;2023-03-23T06:52:26;36.60;42.60
69204;DHT22;56317;27.658;85.326;2023-03-23T06:54:53;38.50;40.90
69204;DHT22;56317;27.658;85.326;2023-03-23T06:57:21;40.60;39.50
69204;DHT22;56317;27.658;85.326;2023-03-23T06:59:48;42.00;38.10
69204;DHT22;56317;27.658;85.326;2023-03-23T07:02:15;41.70;37.90
69204;DHT22;56317;27.658;85.326;2023-03-23T07:04:43;41.70;36.90
69204;DHT22;56317;27.658;85.326;2023-03-23T07:07:12;41.90;36.80
69204;DHT22;56317;27.658;85.326;2023-03-23T07:09:40;41.30;37.10
69204;DHT22;56317;27.658;85.326;2023-03-23T07:12:08;41.00;37.80
69204;DHT22;56317;27.658;85.326;2023-03-23T07:14:36;38.90;37.50
69204;DHT22;56317;27.658;85.326;2023-03-23T07:17:03;35.80;40.30
69204;DHT22;56317;27.658;85.326;2023-03-23T07:19:33;35.30;40.40
69204;DHT22;56317;27.658;85.326;2023-03-23T07:22:03;34.40;41.70
69204;DHT22;56317;27.658;85.326;2023-03-23T07:24:31;36.30;41.40
69204;DHT22;56317;27.658;85.326;2023-03-23T07:26:59;38.50;41.00
69204;DHT22;56317;27.658;85.326;2023-03-23T07:29:26;40.30;39.50
69204;DHT22;56317;27.658;85.326;2023-03-23T07:31:54;41.00;38.40
69204;DHT22;56317;27.658;85.326;2023-03-23T07:34:21;41.30;38.30
69204;DHT22;56317;27.658;85.326;2023-03-23T07:36:48;41.50;37.70
69204;DHT22;56317;27.658;85.326;2023-03-23T07:39:16;41.40;37.40
69204;DHT22;56317;27.658;85.326;2023-03-23T07:41:43;39.00;37.90
69204;DHT22;56317;27.658;85.326;2023-03-23T07:44:10;38.50;38.60
69204;DHT22;56317;27.658;85.326;2023-03-23T07:46:37;35.00;39.50
69204;DHT22;56317;27.658;85.326;2023-03-23T07:49:04;32.40;43.40
69204;DHT22;56317;27.658;85.326;2023-03-23T07:51:42;32.00;45.00
69204;DHT22;56317;27.658;85.326;2023-03-23T07:54:10;31.10;44.40
69204;DHT22;56317;27.658;85.326;2023-03-23T07:56:37;29.90;46.50
69204;DHT22;56317;27.658;85.326;2023-03-23T07:59:07;28.50;47.70
69204;DHT22;56317;27.658;85.326;2023-03-23T08:01:34;27.80;48.80
69204;DHT22;56317;27.658;85.326;2023-03-23T08:04:02;27.50;49.20
69204;DHT22;56317;27.658;85.326;2023-03-23T08:06:29;28.50;50.10
69204;DHT22;56317;27.658;85.326;2023-03-23T08:08:59;32.40;47.00
69204;DHT22;56317;27.658;85.326;2023-03-23T08:11:36;33.20;44.40
69204;DHT22;56317;27.658;85.326;2023-03-23T08:14:04;30.70;45.20
69204;DHT22;56317;27.658;85.326;2023-03-23T08:16:34;28.40;48.40
69204;DHT22;56317;27.658;85.326;2023-03-23T08:19:02;26.80;50.80
69204;DHT22;56317;27.658;85.326;2023-03-23T08:21:29;25.90;52.40
69204;DHT22;56317;27.658;85.326;2023-03-23T08:23:56;25.30;53.30
69204;DHT22;56317;27.658;85.326;2023-03-23T08:26:23;25.60;54.50
69204;DHT22;56317;27.658;85.326;2023-03-23T08:28:50;25.10;55.00
69204;DHT22;56317;27.658;85.326;2023-03-23T08:31:17;24.80;56.40
69204;DHT22;56317;27.658;85.326;2023-03-23T08:33:44;24.60;56.50
69204;DHT22;56317;27.658;85.326;2023-03-23T08:36:12;24.50;57.10
69204;DHT22;56317;27.658;85.326;2023-03-23T08:38:40;26.00;56.70
69204;DHT22;56317;27.658;85.326;2023-03-23T08:41:09;30.50;53.10
69204;DHT22;56317;27.658;85.326;2023-03-23T08:43:37;34.70;47.50
69204;DHT22;56317;27.658;85.326;2023-03-23T08:46:06;36.90;43.80
69204;DHT22;56317;27.658;85.326;2023-03-23T08:48:35;37.70;43.00
69204;DHT22;56317;27.658;85.326;2023-03-23T08:51:04;38.50;41.90
69204;DHT22;56317;27.658;85.326;2023-03-23T08:53:32;38.30;41.50
69204;DHT22;56317;27.658;85.326;2023-03-23T08:56:06;38.80;41.70
69204;DHT22;56317;27.658;85.326;2023-03-23T08:58:35;39.70;40.20
69204;DHT22;56317;27.658;85.326;2023-03-23T09:01:03;39.80;39.90
69204;DHT22;56317;27.658;85.326;2023-03-23T09:03:33;38.20;40.70
69204;DHT22;56317;27.658;85.326;2023-03-23T09:06:03;38.00;40.90
69204;DHT22;56317;27.658;85.326;2023-03-23T09:08:32;36.50;40.60
69204;DHT22;56317;27.658;85.326;2023-03-23T09:11:07;36.10;42.40
69204;DHT22;56317;27.658;85.326;2023-03-23T09:13:38;37.40;41.80
69204;DHT22;56317;27.658;85.326;2023-03-23T09:16:07;38.40;40.70
69204;DHT22;56317;27.658;85.326;2023-03-23T09:18:38;38.70;40.70
69204;DHT22;56317;27.658;85.326;2023-03-23T09:21:06;38.60;40.60
69204;DHT22;56317;27.658;85.326;2023-03-23T09:23:34;37.90;40.10
69204;DHT22;56317;27.658;85.326;2023-03-23T09:26:02;36.40;41.90
69204;DHT22;56317;27.658;85.326;2023-03-23T09:28:30;35.80;42.20
69204;DHT22;56317;27.658;85.326;2023-03-23T09:30:57;35.20;42.60
69204;DHT22;56317;27.658;85.326;2023-03-23T09:33:25;33.40;44.00
69204;DHT22;56317;27.658;85.326;2023-03-23T09:35:53;32.80;46.00
69204;DHT22;56317;27.658;85.326;2023-03-23T09:38:20;33.70;45.40
69204;DHT22;56317;27.658;85.326;2023-03-23T09:43:52;29.60;47.70
69204;DHT22;56317;27.658;85.326;2023-03-23T09:48:55;31.90;47.90
69204;DHT22;56317;27.658;85.326;2023-03-23T09:54:39;28.70;50.90
69204;DHT22;56317;27.658;85.326;2023-03-23T10:05:33;30.60;50.90
69204;DHT22;56317;27.658;85.326;2023-03-23T10:08:05;32.70;48.80
69204;DHT22;56317;27.658;85.326;2023-03-23T10:13:56;33.40;45.90
69204;DHT22;56317;27.658;85.326;2023-03-23T10:16:54;32.20;47.10
69204;DHT22;56317;27.658;85.326;2023-03-23T10:19:34;32.80;46.90
69204;DHT22;56317;27.658;85.326;2023-03-23T10:22:14;33.30;47.00
69204;DHT22;56317;27.658;85.326;2023-03-23T10:27:33;33.70;46.40
69204;DHT22;56317;27.658;85.326;2023-03-23T10:30:25;34.30;45.80
69204;DHT22;56317;27.658;85.326;2023-03-23T10:33:26;33.80;45.10
69204;DHT22;56317;27.658;85.326;2023-03-23T10:36:34;33.50;45.20
69204;DHT22;56317;27.658;85.326;2023-03-23T10:39:21;33.70;45.80
69204;DHT22;56317;27.658;85.326;2023-03-23T10:41:49;33.30;45.70
69204;DHT22;56317;27.658;85.326;2023-03-23T10:44:21;32.50;46.20
69204;DHT22;56317;27.658;85.326;2023-03-23T10:46:59;32.30;46.70
69204;DHT22;56317;27.658;85.326;2023-03-23T10:54:50;31.50;47.10
69204;DHT22;56317;27.658;85.326;2023-03-23T10:57:31;31.20;47.70
69204;DHT22;56317;27.658;85.326;2023-03-23T11:00:21;30.90;48.00
69204;DHT22;56317;27.658;85.326;2023-03-23T11:05:53;30.00;50.20
69204;DHT22;56317;27.658;85.326;2023-03-23T11:08:23;30.00;49.80
69204;DHT22;56317;27.658;85.326;2023-03-23T11:10:57;29.80;49.80
69204;DHT22;56317;27.658;85.326;2023-03-23T11:13:31;29.10;50.40
69204;DHT22;56317;27.658;85.326;2023-03-23T11:15:59;28.80;51.50
69204;DHT22;56317;27.658;85.326;2023-03-23T11:18:40;28.20;52.00
69204;DHT22;56317;27.658;85.326;2023-03-23T11:21:12;26.10;54.30
69204;DHT22;56317;27.658;85.326;2023-03-23T11:23:42;24.20;58.30
69204;DHT22;56317;27.658;85.326;2023-03-23T11:31:47;22.00;64.50
69204;DHT22;56317;27.658;85.326;2023-03-23T11:34:30;21.70;64.60
69204;DHT22;56317;27.658;85.326;2023-03-23T11:37:07;21.20;65.70
69204;DHT22;56317;27.658;85.326;2023-03-23T11:40:17;20.90;68.40
69204;DHT22;56317;27.658;85.326;2023-03-23T11:42:58;20.40;69.20
69204;DHT22;56317;27.658;85.326;2023-03-23T11:45:37;20.10;70.80
69204;DHT22;56317;27.658;85.326;2023-03-23T11:56:42;19.20;75.40
69204;DHT22;56317;27.658;85.326;2023-03-23T11:59:17;19.00;76.00
69204;DHT22;56317;27.658;85.326;2023-03-23T12:02:04;18.80;76.90
69204;DHT22;56317;27.658;85.326;2023-03-23T12:05:26;18.70;78.50
69204;DHT22;56317;27.658;85.326;2023-03-23T12:36:10;17.10;99.90
69204;DHT22;56317;27.658;85.326;2023-03-23T12:44:10;16.90;99.90
69204;DHT22;56317;27.658;85.326;2023-03-23T12:49:53;16.70;99.90
69204;DHT22;56317;27.658;85.326;2023-03-23T12:52:35;16.60;99.90
69204;DHT22;56317;27.658;85.326;2023-03-23T12:55:27;16.60;99.90
69204;DHT22;56317;27.658;85.326;2023-03-23T12:58:08;16.50;99.90
69204;DHT22;56317;27.658;85.326;2023-03-23T13:06:36;16.40;99.90
69204;DHT22;56317;27.658;85.326;2023-03-23T13:11:43;16.40;99.90
69204;DHT22;56317;27.658;85.326;2023-03-23T13:17:49;16.50;99.90
69204;DHT22;56317;27.658;85.326;2023-03-23T13:20:34;16.40;99.90
69204;DHT22;56317;27.658;85.326;2023-03-23T13:23:26;16.40;99.90
69204;DHT22;56317;27.658;85.326;2023-03-23T13:26:12;16.40;99.90
69204;DHT22;56317;27.658;85.326;2023-03-23T13:28:55;16.50;99.90
69204;DHT22;56317;27.658;85.326;2023-03-23T13:31:24;16.40;99.90
69204;DHT22;56317;27.658;85.326;2023-03-23T13:36:41;16.40;99.90
69204;DHT22;56317;27.658;85.326;2023-03-23T13:39:31;16.30;99.90
69204;DHT22;56317;27.658;85.326;2023-03-23T13:44:38;16.20;99.90
69204;DHT22;56317;27.658;85.326;2023-03-23T13:47:22;16.10;99.90
69204;DHT22;56317;27.658;85.326;2023-03-23T13:50:10;16.10;99.90
69204;DHT22;56317;27.658;85.326;2023-03-23T13:52:52;16.00;99.90
69204;DHT22;56317;27.658;85.326;2023-03-23T13:55:38;15.90;99.90
69204;DHT22;56317;27.658;85.326;2023-03-23T14:03:41;15.80;99.90
69204;DHT22;56317;27.658;85.326;2023-03-23T14:06:14;15.80;99.90
69204;DHT22;56317;27.658;85.326;2023-03-23T14:08:48;15.70;99.90
69204;DHT22;56317;27.658;85.326;2023-03-23T14:11:25;15.60;99.90
69204;DHT22;56317;27.658;85.326;2023-03-23T14:14:32;15.60;99.90
69204;DHT22;56317;27.658;85.326;2023-03-23T14:17:18;15.60;99.90
69204;DHT22;56317;27.658;85.326;2023-03-23T14:19:53;15.60;99.90
69204;DHT22;56317;27.658;85.326;2023-03-23T14:22:26;15.60;99.90
69204;DHT22;56317;27.658;85.326;2023-03-23T14:25:15;15.50;99.90
69204;DHT22;56317;27.658;85.326;2023-03-23T14:27:43;15.50;99.90
69204;DHT22;56317;27.658;85.326;2023-03-23T14:30:35;15.50;99.90
69204;DHT22;56317;27.658;85.326;2023-03-23T14:33:06;15.50;99.90
69204;DHT22;56317;27.658;85.326;2023-03-23T14:35:37;15.50;99.90
69204;DHT22;56317;27.658;85.326;2023-03-23T14:38:05;15.40;99.90
69204;DHT22;56317;27.658;85.326;2023-03-23T14:40:38;15.40;99.90
69204;DHT22;56317;27.658;85.326;2023-03-23T14:43:05;15.50;99.90
69204;DHT22;56317;27.658;85.326;2023-03-23T14:45:33;15.50;99.90
69204;DHT22;56317;27.658;85.326;2023-03-23T14:48:03;15.50;99.90
69204;DHT22;56317;27.658;85.326;2023-03-23T14:50:47;15.50;99.90
69204;DHT22;56317;27.658;85.326;2023-03-23T14:53:37;15.60;99.90
69204;DHT22;56317;27.658;85.326;2023-03-23T14:56:13;15.50;99.90
69204;DHT22;56317;27.658;85.326;2023-03-23T14:58:50;15.50;99.90
69204;DHT22;56317;27.658;85.326;2023-03-23T15:01:27;15.40;99.90
69204;DHT22;56317;27.658;85.326;2023-03-23T15:04:06;15.30;99.90
69204;DHT22;56317;27.658;85.326;2023-03-23T15:06:37;15.20;99.90
69204;DHT22;56317;27.658;85.326;2023-03-23T15:09:16;15.00;99.90
69204;DHT22;56317;27.658;85.326;2023-03-23T15:11:59;14.90;99.90
69204;DHT22;56317;27.658;85.326;2023-03-23T15:14:32;14.80;99.90
69204;DHT22;56317;27.658;85.326;2023-03-23T15:17:01;14.80;99.90
69204;DHT22;56317;27.658;85.326;2023-03-23T15:19:36;14.80;99.90
69204;DHT22;56317;27.658;85.326;2023-03-23T15:24:54;14.90;99.90
69204;DHT22;56317;27.658;85.326;2023-03-23T15:27:34;14.80;99.90
69204;DHT22;56317;27.658;85.326;2023-03-23T15:32:44;14.60;99.90
69204;DHT22;56317;27.658;85.326;2023-03-23T15:35:22;14.60;99.90
69204;DHT22;56317;27.658;85.326;2023-03-23T15:37:52;14.60;99.90
69204;DHT22;56317;27.658;85.326;2023-03-23T15:40:25;14.50;99.90
69204;DHT22;56317;27.658;85.326;2023-03-23T15:43:18;14.40;99.90
69204;DHT22;56317;27.658;85.326;2023-03-23T15:46:01;14.40;99.90
69204;DHT22;56317;27.658;85.326;2023-03-23T15:51:24;14.40;99.90
69204;DHT22;56317;27.658;85.326;2023-03-23T15:53:52;14.50;99.90
69204;DHT22;56317;27.658;85.326;2023-03-23T15:56:20;14.60;99.90
69204;DHT22;56317;27.658;85.326;2023-03-23T15:58:47;14.70;99.90
69204;DHT22;56317;27.658;85.326;2023-03-23T16:01:20;14.80;99.90
69204;DHT22;56317;27.658;85.326;2023-03-23T16:06:18;15.00;99.90
69204;DHT22;56317;27.658;85.326;2023-03-23T16:08:45;15.00;99.90
69204;DHT22;56317;27.658;85.326;2023-03-23T16:11:14;15.00;99.90
69204;DHT22;56317;27.658;85.326;2023-03-23T16:13:41;15.00;99.90
69204;DHT22;56317;27.658;85.326;2023-03-23T16:16:31;14.90;99.90
69204;DHT22;56317;27.658;85.326;2023-03-23T16:18:59;14.80;99.90
69204;DHT22;56317;27.658;85.326;2023-03-23T16:21:27;14.70;99.90
69204;DHT22;56317;27.658;85.326;2023-03-23T16:23:54;14.70;99.90
69204;DHT22;56317;27.658;85.326;2023-03-23T16:26:22;14.60;99.90
69204;DHT22;56317;27.658;85.326;2023-03-23T16:28:49;14.50;99.90
69204;DHT22;56317;27.658;85.326;2023-03-23T16:31:16;14.40;99.90
69204;DHT22;56317;27.658;85.326;2023-03-23T16:33:43;14.30;99.90
69204;DHT22;56317;27.658;85.326;2023-03-23T16:36:12;14.30;99.90
69204;DHT22;56317;27.658;85.326;2023-03-23T16:38:40;14.20;99.90
69204;DHT22;56317;27.658;85.326;2023-03-23T16:41:07;14.10;99.90
69204;DHT22;56317;27.658;85.326;2023-03-23T16:43:35;14.10;99.90
69204;DHT22;56317;27.658;85.326;2023-03-23T16:46:02;14.10;99.90
69204;DHT22;56317;27.658;85.326;2023-03-23T16:48:29;14.00;99.90
69204;DHT22;56317;27.658;85.326;2023-03-23T16:50:56;14.00;99.90
69204;DHT22;56317;27.658;85.326;2023-03-23T16:53:23;13.90;99.90
69204;DHT22;56317;27.658;85.326;2023-03-23T16:55:53;13.70;99.90
69204;DHT22;56317;27.658;85.326;2023-03-23T16:58:20;13.60;99.90
69204;DHT22;56317;27.658;85.326;2023-03-23T17:00:49;13.60;99.90
69204;DHT22;56317;27.658;85.326;2023-03-23T17:03:18;13.50;99.90
69204;DHT22;56317;27.658;85.326;2023-03-23T17:05:50;13.40;99.90
69204;DHT22;56317;27.658;85.326;2023-03-23T17:08:17;13.40;99.90
69204;DHT22;56317;27.658;85.326;2023-03-23T17:10:45;13.30;99.90
69204;DHT22;56317;27.658;85.326;2023-03-23T17:13:12;13.20;99.90
69204;DHT22;56317;27.658;85.326;2023-03-23T17:15:41;13.20;99.90
69204;DHT22;56317;27.658;85.326;2023-03-23T17:18:08;13.20;99.90
69204;DHT22;56317;27.658;85.326;2023-03-23T17:20:35;13.10;99.90
69204;DHT22;56317;27.658;85.326;2023-03-23T17:23:03;13.10;99.90
69204;DHT22;56317;27.658;85.326;2023-03-23T17:25:30;13.20;99.90
69204;DHT22;56317;27.658;85.326;2023-03-23T17:27:58;13.20;99.90
69204;DHT22;56317;27.658;85.326;2023-03-23T17:30:25;13.30;99.90
69204;DHT22;56317;27.658;85.326;2023-03-23T17:32:55;13.30;99.90
69204;DHT22;56317;27.658;85.326;2023-03-23T17:35:25;13.40;99.90
69204;DHT22;56317;27.658;85.326;2023-03-23T17:37:55;13.40;99.90
69204;DHT22;56317;27.658;85.326;2023-03-23T17:40:22;13.30;99.90
69204;DHT22;56317;27.658;85.326;2023-03-23T17:42:49;13.30;99.90
69204;DHT22;56317;27.658;85.326;2023-03-23T17:45:16;13.30;99.90
69204;DHT22;56317;27.658;85.326;2023-03-23T17:47:43;13.30;99.90
69204;DHT22;56317;27.658;85.326;2023-03-23T17:50:10;13.30;99.90
69204;DHT22;56317;27.658;85.326;2023-03-23T17:52:37;13.30;99.90
69204;DHT22;56317;27.658;85.326;2023-03-23T17:55:08;13.20;99.90
69204;DHT22;56317;27.658;85.326;2023-03-23T17:57:35;13.20;99.90
69204;DHT22;56317;27.658;85.326;2023-03-23T18:00:04;13.20;99.90
69204;DHT22;56317;27.658;85.326;2023-03-23T18:02:35;13.10;99.90
69204;DHT22;56317;27.658;85.326;2023-03-23T18:05:02;13.20;99.90
69204;DHT22;56317;27.658;85.326;2023-03-23T18:07:29;13.20;99.90